createdAt,value
2023-04-04T00:01:37.185Z,25.1
2023-04-04T00:07:13.927Z,23.8
2023-04-04T00:13:06.252Z,23.1
2023-04-04T00:18:42.512Z,23
2023-04-04T00:24:19.699Z,23.1
2023-04-04T00:30:11.014Z,25.1
2023-04-04T00:36:03.120Z,24.5
2023-04-04T00:41:38.870Z,23.5
2023-04-04T00:47:31.315Z,23.1
2023-04-04T00:53:08.336Z,22.9
2023-04-04T00:58:59.515Z,23.2
2023-04-04T01:04:52.729Z,24.9
2023-04-04T01:10:43.908Z,23.5
2023-04-04T01:16:19.597Z,23.1
2023-04-04T01:21:55.870Z,22.9
2023-04-04T01:27:31.390Z,22.7
2023-04-04T01:33:23.387Z,23.6
2023-04-04T01:39:16.196Z,24.1
2023-04-04T01:45:08.759Z,23.6
2023-04-04T01:50:47.166Z,23.4
2023-04-04T01:56:08.425Z,23.3
2023-04-04T02:02:00.206Z,23
2023-04-04T02:07:36.728Z,24.8
2023-04-04T02:13:27.853Z,24.2
2023-04-04T02:19:06.903Z,23.4
2023-04-04T02:24:43.017Z,23.1
2023-04-04T02:30:19.097Z,23.1
2023-04-04T02:36:11.381Z,23.4
2023-04-04T02:42:02.853Z,25.1
2023-04-04T02:48:00.587Z,24.1
2023-04-04T02:53:52.047Z,23.4
2023-04-04T02:59:43.986Z,23.1
2023-04-04T03:05:21.659Z,22.8
2023-04-04T03:11:12.897Z,23.8
2023-04-04T03:17:04.104Z,24
2023-04-04T03:22:40.831Z,23.2
2023-04-04T03:28:17.097Z,22.9
2023-04-04T03:34:08.954Z,22.6
2023-04-04T03:40:00.444Z,22.4
2023-04-04T03:45:51.857Z,23.8
2023-04-04T03:51:43.263Z,23.6
2023-04-04T03:57:35.332Z,22.9
2023-04-04T04:03:12.689Z,22.7
2023-04-04T04:09:05.252Z,22.6
2023-04-04T04:14:56.740Z,23.1
2023-04-04T04:20:49.444Z,24.4
2023-04-04T04:26:41.262Z,23.2
2023-04-04T04:32:32.739Z,22.6
2023-04-04T04:38:11.036Z,22.6
2023-04-04T04:44:02.469Z,22.6
2023-04-04T04:49:55.010Z,23.8
2023-04-04T04:55:47.424Z,23.9
2023-04-04T05:01:39.966Z,23.4
2023-04-04T05:07:31.572Z,22.9
2023-04-04T05:13:23.367Z,22.8
2023-04-04T05:19:16.772Z,22.8
2023-04-04T05:25:07.962Z,24.1
2023-04-04T05:30:59.585Z,23.4
2023-04-04T05:36:52.517Z,23.2
2023-04-04T05:42:29.216Z,22.9
2023-04-04T05:48:21.677Z,22.5
2023-04-04T05:54:12.916Z,23.2
2023-04-04T06:00:05.365Z,23.6
2023-04-04T06:05:58.089Z,23
2023-04-04T06:11:54.997Z,22.7
2023-04-04T06:17:49.204Z,22.3
2023-04-04T06:23:41.560Z,22.8
2023-04-04T06:29:33.231Z,23.8
2023-04-04T06:35:25.737Z,22.9
2023-04-04T06:41:17.843Z,22.6
2023-04-04T06:46:54.244Z,22.4
2023-04-04T06:52:46.228Z,22.3
2023-04-04T06:58:38.074Z,23.1
2023-04-04T07:04:31.342Z,24.3
2023-04-04T07:10:34.890Z,23.4
2023-04-04T07:16:27.212Z,22.9
2023-04-04T07:22:25.814Z,22.6
2023-04-04T07:28:28.230Z,22.3
2023-04-04T07:34:20.731Z,22.1
2023-04-04T07:40:12.512Z,21.9
2023-04-04T07:45:49.817Z,21.8
2023-04-04T07:51:41.088Z,21.6
2023-04-04T07:57:32.192Z,21.9
2023-04-04T08:03:25.345Z,23.6
2023-04-04T08:09:17.795Z,24
2023-04-04T08:15:10.030Z,23.3
2023-04-04T08:21:01.931Z,22.7
2023-04-04T08:27:04.281Z,22.3
2023-04-04T08:32:57.735Z,22.1
2023-04-04T08:39:03.065Z,21.9
2023-04-04T08:44:55.286Z,21.8
2023-04-04T08:50:48.036Z,21.7
2023-04-04T08:56:39.957Z,21.5
2023-04-04T09:02:34.408Z,22.6
2023-04-04T09:08:42.162Z,23.7
2023-04-04T09:14:45.643Z,23.1
2023-04-04T09:20:38.718Z,22.2
2023-04-04T09:26:37.264Z,21.8
2023-04-04T09:32:15.505Z,21.4
2023-04-04T09:38:08.538Z,21.4
2023-04-04T09:44:01.483Z,21.3
2023-04-04T09:50:14.651Z,21.2
2023-04-04T09:56:27.325Z,22.5
2023-04-04T10:02:35.473Z,24.1
2023-04-04T10:08:38.683Z,23.1
2023-04-04T10:14:44.779Z,22.3
2023-04-04T10:20:37.327Z,21.6
2023-04-04T10:26:40.904Z,21.5
2023-04-04T10:32:47.473Z,20.7
2023-04-04T10:38:39.831Z,21.4
2023-04-04T10:44:31.761Z,21.6
2023-04-04T10:50:23.075Z,23.4
2023-04-04T10:56:25.039Z,24.6
2023-04-04T11:02:17.830Z,23.6
2023-04-04T11:08:17.017Z,22.8
2023-04-04T11:14:34.441Z,22.4
2023-04-04T11:20:43.635Z,22.1
2023-04-04T11:26:35.293Z,21.9
2023-04-04T11:32:28.007Z,21.8
2023-04-04T11:38:33.819Z,21.8
2023-04-04T11:44:25.304Z,23.7
2023-04-04T11:50:16.896Z,24.4
2023-04-04T11:55:54.558Z,23.5
2023-04-04T12:01:55.180Z,22.7
2023-04-04T12:07:48.418Z,21.9
2023-04-04T12:13:40.193Z,21.7
2023-04-04T12:19:45.957Z,21.4
2023-04-04T12:25:40.091Z,21.3
2023-04-04T12:31:31.988Z,21.3
2023-04-04T12:37:24.432Z,23.1
2023-04-04T12:43:16.433Z,23.4
2023-04-04T12:49:08.605Z,22.8
2023-04-04T12:55:25.116Z,22.1
2023-04-04T13:01:20.833Z,21.6
2023-04-04T13:07:12.921Z,21.3
2023-04-04T13:18:44.380Z,21
2023-04-04T13:24:36.170Z,20.9
2023-04-04T13:30:28.378Z,22.9
2023-04-04T13:36:21.044Z,24.2
2023-04-04T13:42:12.728Z,23.4
2023-04-04T13:48:05.154Z,22.8
2023-04-04T13:53:58.833Z,22.4
2023-04-04T14:00:14.272Z,22
2023-04-04T14:06:26.818Z,21.8
2023-04-04T14:12:19.195Z,21.4
2023-04-04T14:18:12.937Z,21.1
2023-04-04T14:24:05.065Z,22.8
2023-04-04T14:29:41.844Z,24.1
2023-04-04T14:35:35.467Z,23.5
2023-04-04T14:41:29.532Z,22.7
2023-04-04T14:47:21.900Z,22
2023-04-04T14:53:14.046Z,21.8
2023-04-04T14:59:24.017Z,21.6
2023-04-04T15:05:19.196Z,21.3
2023-04-04T15:16:33.911Z,22.4
2023-04-04T15:22:26.323Z,23.8
2023-04-04T15:28:19.884Z,23.8
2023-04-04T15:34:15.162Z,22.8
2023-04-04T15:40:12.914Z,22.2
2023-04-04T15:46:04.208Z,24.5
2023-04-04T15:51:40.852Z,27.2
2023-04-04T15:57:33.871Z,28.3
2023-04-04T16:03:26.105Z,28.7
2023-04-04T16:09:17.706Z,28.8
2023-04-04T16:15:12.028Z,28.6
2023-04-04T16:21:05.702Z,28.4
2023-04-04T16:26:56.947Z,28.1
2023-04-04T16:38:12.704Z,28.8
2023-04-04T16:44:09.506Z,28.2
2023-04-04T16:50:06.868Z,30.3
2023-04-04T16:56:01.558Z,31.3
2023-04-04T17:01:58.588Z,32.6
2023-04-04T17:07:59.181Z,33.5
2023-04-04T17:13:58.711Z,34.6
2023-04-04T17:19:43.936Z,34.6
2023-04-04T17:25:29.621Z,33.5
2023-04-04T17:31:30.048Z,34.6
2023-04-04T17:37:14.394Z,34.5
2023-04-04T17:43:14.551Z,34.3
2023-04-04T17:48:58.321Z,33.4
2023-04-04T17:54:44.318Z,32.3
2023-04-04T18:00:33.092Z,31.4
2023-04-04T18:06:30.360Z,32.4
2023-04-04T18:12:29.216Z,34
2023-04-04T18:18:37.357Z,34.8
2023-04-04T18:24:50.661Z,34.1
2023-04-04T18:30:50.866Z,33.7
2023-04-04T18:36:50.184Z,35.1
2023-04-04T18:42:34.138Z,34.4
2023-04-04T18:48:44.502Z,33.4
2023-04-04T18:54:29.623Z,31.8
2023-04-04T19:00:30.874Z,32
2023-04-04T19:06:35.060Z,31.1
2023-04-04T19:12:37.188Z,31.5
2023-04-04T19:18:38.113Z,31.6
2023-04-04T19:24:22.613Z,31.3
2023-04-04T19:30:24.049Z,29.8
2023-04-04T19:36:24.749Z,30
2023-04-04T19:42:24.986Z,30.3
2023-04-04T19:48:27.564Z,29.4
2023-04-04T19:54:28.573Z,28.4
2023-04-04T20:00:32.142Z,27.4
2023-04-04T20:06:41.125Z,26.8
2023-04-04T20:12:40.743Z,26.4
2023-04-04T20:18:40.920Z,24.8
2023-04-04T20:24:43.656Z,25.1
2023-04-04T20:30:26.484Z,24.8
2023-04-04T20:36:27.686Z,24.1
2023-04-04T20:42:28.898Z,23.8
2023-04-04T20:48:29.702Z,23.4
2023-04-04T20:54:30.155Z,23.3
2023-04-04T21:00:14.599Z,22.8
2023-04-04T21:06:18.276Z,22.7
2023-04-04T21:12:17.869Z,22.5
2023-04-04T21:18:00.751Z,22.4
2023-04-04T21:24:02.201Z,22.3
2023-04-04T21:30:01.860Z,22.2
2023-04-04T21:36:00.939Z,22.1
2023-04-04T21:41:55.674Z,21.9
2023-04-04T21:47:49.672Z,21.9
2023-04-04T21:53:43.744Z,21.8
2023-04-04T21:59:36.149Z,21.8
2023-04-04T22:05:13.684Z,21.7
2023-04-04T22:11:17.044Z,21.6
2023-04-04T22:17:08.937Z,21.6
2023-04-04T22:23:00.623Z,21.6
2023-04-04T22:28:52.048Z,21.5
2023-04-04T22:34:43.491Z,21.4
2023-04-04T22:40:35.600Z,23.1
2023-04-04T22:46:27.594Z,23.4
2023-04-04T22:52:04.714Z,22.8
2023-04-04T22:57:56.464Z,22.3
2023-04-04T23:03:49.201Z,22
2023-04-04T23:09:40.754Z,21.8
2023-04-04T23:15:17.640Z,21.7
2023-04-04T23:21:09.768Z,21.6
2023-04-04T23:27:00.889Z,21.4
2023-04-04T23:32:53.088Z,21.4
2023-04-04T23:38:44.871Z,22.4
2023-04-04T23:44:36.241Z,23.6
2023-04-04T23:49:57.745Z,22.9
2023-04-04T23:55:49.750Z,22.4
